Time;durP1;ratioP1;P1;durP2;ratioP2;P2;SDS_P1;SDS_P2;PMS_P1;PMS_P2;Temp;Humidity;BMP_temperature;BMP_pressure;BME280_temperature;BME280_humidity;BME280_pressure;Samples;Min_cycle;Max_cycle;Signal;HPM_P1;HPM_P2
2022/03/08 00:00:22;;;;;;;9.95;5.15;;;;;;;;;;5073811;28;20093;-69
2022/03/08 00:02:48;;;;;;;8.43;5.43;;;;;;;;;;5056934;28;20119;-69
2022/03/08 00:05:14;;;;;;;9.55;5.28;;;;;;;;;;5072928;28;20048;-69
2022/03/08 00:07:40;;;;;;;12.05;6.03;;;;;;;;;;5073940;28;20467;-69
2022/03/08 00:10:07;;;;;;;8.48;5.32;;;;;;;;;;5073515;28;20040;-69
2022/03/08 00:12:33;;;;;;;9.95;5.55;;;;;;;;;;5072719;28;20044;-69
2022/03/08 00:14:59;;;;;;;13.43;6.13;;;;;;;;;;5073446;28;20117;-69
2022/03/08 00:17:25;;;;;;;10.60;5.50;;;;;;;;;;5073374;28;20087;-69
2022/03/08 00:19:51;;;;;;;10.07;4.70;;;;;;;;;;5056147;28;20049;-69
2022/03/08 00:22:17;;;;;;;10.27;5.35;;;;;;;;;;5073771;28;20502;-69
2022/03/08 00:24:44;;;;;;;12.95;6.20;;;;;;;;;;5073240;28;20043;-69
2022/03/08 00:27:10;;;;;;;15.27;6.97;;;;;;;;;;5090227;28;20048;-69
2022/03/08 00:29:36;;;;;;;25.08;11.43;;;;;;;;;;5093382;28;20055;-69
2022/03/08 00:32:02;;;;;;;23.02;10.85;;;;;;;;;;5076705;28;20455;-69
2022/03/08 00:34:28;;;;;;;20.60;9.93;;;;;;;;;;5076059;28;20561;-69
2022/03/08 00:36:54;;;;;;;20.70;9.32;;;;;;;;;;5093223;28;20040;-69
2022/03/08 00:39:20;;;;;;;19.27;8.77;;;;;;;;;;5093513;28;20059;-69
2022/03/08 00:41:46;;;;;;;15.52;8.00;;;;;;;;;;5093247;28;20048;-69
2022/03/08 00:44:12;;;;;;;18.17;8.77;;;;;;;;;;5092646;28;20036;-69
2022/03/08 00:46:38;;;;;;;16.65;8.57;;;;;;;;;;5093268;28;20492;-69
2022/03/08 00:49:04;;;;;;;14.30;7.25;;;;;;;;;;5093173;28;20056;-69
2022/03/08 00:51:30;;;;;;;13.60;6.88;;;;;;;;;;5091604;28;20044;-69
2022/03/08 00:53:56;;;;;;;14.15;7.82;;;;;;;;;;5093229;28;20120;-69
2022/03/08 00:56:23;;;;;;;12.95;7.53;;;;;;;;;;5093285;28;20474;-69
2022/03/08 00:58:49;;;;;;;12.68;6.15;;;;;;;;;;5092462;28;20094;-69
2022/03/08 01:01:15;;;;;;;13.63;6.30;;;;;;;;;;5092861;28;20080;-69
2022/03/08 01:03:41;;;;;;;9.93;5.70;;;;;;;;;;5075908;28;20047;-69
2022/03/08 01:06:07;;;;;;;11.20;6.20;;;;;;;;;;5092103;28;20560;-69
2022/03/08 01:08:33;;;;;;;11.07;6.30;;;;;;;;;;5092863;28;20047;-69
2022/03/08 01:10:59;;;;;;;11.65;6.25;;;;;;;;;;5092765;28;20040;-69
2022/03/08 01:13:25;;;;;;;9.82;5.47;;;;;;;;;;5075524;28;20552;-69
2022/03/08 01:15:51;;;;;;;10.68;5.75;;;;;;;;;;5092755;28;20541;-69
2022/03/08 01:18:17;;;;;;;14.77;5.20;;;;;;;;;;5092613;28;20032;-69
2022/03/08 01:20:43;;;;;;;9.80;5.90;;;;;;;;;;5092083;28;20044;-69
2022/03/08 01:23:09;;;;;;;12.30;6.00;;;;;;;;;;5092694;28;20089;-69
2022/03/08 01:25:39;;;;;;;11.15;5.38;;;;;;;;;;5088037;28;20028;-69
2022/03/08 01:28:06;;;;;;;11.25;5.78;;;;;;;;;;5071451;28;20041;-69
2022/03/08 01:30:32;;;;;;;10.70;4.93;;;;;;;;;;5071759;28;20384;-69
2022/03/08 01:32:58;;;;;;;10.75;5.65;;;;;;;;;;5072157;28;20048;-69
2022/03/08 01:35:25;;;;;;;9.30;5.43;;;;;;;;;;5071073;28;20032;-69
2022/03/08 01:37:51;;;;;;;10.35;5.93;;;;;;;;;;5055510;28;20087;-69
2022/03/08 01:40:17;;;;;;;9.30;5.43;;;;;;;;;;5071758;28;20090;-69
2022/03/08 01:42:46;;;;;;;11.85;5.75;;;;;;;;;;5071284;28;20049;-69
2022/03/08 01:45:12;;;;;;;11.63;5.88;;;;;;;;;;5071604;28;20056;-69
2022/03/08 01:47:39;;;;;;;10.80;6.30;;;;;;;;;;5071872;28;20043;-69
2022/03/08 01:50:06;;;;;;;15.13;6.97;;;;;;;;;;5071037;28;20119;-69
2022/03/08 01:52:32;;;;;;;13.52;6.28;;;;;;;;;;5071962;28;20125;-69
2022/03/08 01:54:58;;;;;;;11.95;6.18;;;;;;;;;;5071959;28;20051;-69
2022/03/08 01:57:25;;;;;;;13.13;6.85;;;;;;;;;;5071180;28;20051;-69
2022/03/08 01:59:52;;;;;;;12.57;6.53;;;;;;;;;;5071412;28;20059;-69
2022/03/08 02:02:18;;;;;;;11.18;6.80;;;;;;;;;;5071509;28;20044;-69
2022/03/08 02:04:45;;;;;;;15.57;6.32;;;;;;;;;;5070682;28;20047;-69
2022/03/08 02:07:11;;;;;;;13.88;6.75;;;;;;;;;;5071297;28;20040;-69
2022/03/08 02:09:37;;;;;;;14.43;7.85;;;;;;;;;;5071324;28;20046;-69
2022/03/08 02:12:03;;;;;;;12.77;7.15;;;;;;;;;;5070458;28;20437;-69
2022/03/08 02:14:29;;;;;;;13.40;6.97;;;;;;;;;;5054923;28;20102;-69
2022/03/08 02:16:55;;;;;;;12.95;6.95;;;;;;;;;;5071338;28;20079;-69
2022/03/08 02:19:21;;;;;;;13.20;7.13;;;;;;;;;;5070545;28;20155;-69
2022/03/08 02:21:49;;;;;;;11.60;6.60;;;;;;;;;;5054517;28;20099;-69
2022/03/08 02:24:15;;;;;;;14.80;7.22;;;;;;;;;;5071050;28;20041;-69
2022/03/08 02:26:41;;;;;;;13.60;7.28;;;;;;;;;;5083282;28;20051;-69
2022/03/08 02:29:08;;;;;;;14.55;7.03;;;;;;;;;;5090694;28;20123;-69
2022/03/08 02:31:35;;;;;;;11.90;6.82;;;;;;;;;;5074208;28;20078;-69
2022/03/08 02:34:01;;;;;;;13.80;7.68;;;;;;;;;;5090355;28;20135;-69
2022/03/08 02:36:27;;;;;;;16.33;7.82;;;;;;;;;;5091032;28;20044;-69
2022/03/08 02:38:53;;;;;;;12.93;7.38;;;;;;;;;;5091065;28;20047;-69
2022/03/08 02:41:19;;;;;;;15.07;8.18;;;;;;;;;;5090418;28;20044;-69
2022/03/08 02:43:46;;;;;;;11.75;7.38;;;;;;;;;;5091068;28;20048;-69
2022/03/08 02:46:12;;;;;;;15.13;7.55;;;;;;;;;;5090691;28;20036;-69
2022/03/08 02:48:38;;;;;;;13.32;7.72;;;;;;;;;;5073263;28;20042;-69
2022/03/08 02:51:04;;;;;;;15.35;8.32;;;;;;;;;;5090805;28;20044;-69
2022/03/08 02:53:30;;;;;;;15.00;8.45;;;;;;;;;;5090799;28;20081;-69
2022/03/08 02:55:56;;;;;;;13.63;7.80;;;;;;;;;;5089823;28;20070;-69
2022/03/08 02:58:22;;;;;;;12.43;7.47;;;;;;;;;;5090505;28;20036;-69
2022/03/08 03:00:48;;;;;;;19.35;9.20;;;;;;;;;;5090812;28;20036;-69
2022/03/08 03:03:15;;;;;;;17.60;9.13;;;;;;;;;;5089961;28;20074;-69
2022/03/08 03:05:41;;;;;;;14.07;8.35;;;;;;;;;;5073398;28;20059;-70
2022/03/08 03:08:09;;;;;;;16.38;8.82;;;;;;;;;;5090643;28;20681;-69
2022/03/08 03:10:35;;;;;;;18.02;8.75;;;;;;;;;;5090067;28;20051;-69
2022/03/08 03:13:01;;;;;;;17.30;8.52;;;;;;;;;;5090037;28;20040;-69
2022/03/08 03:15:29;;;;;;;17.40;8.88;;;;;;;;;;5090431;28;20058;-69
2022/03/08 03:17:55;;;;;;;21.38;9.13;;;;;;;;;;5089773;28;20371;-69
2022/03/08 03:20:22;;;;;;;16.70;8.98;;;;;;;;;;5073962;28;20074;-69
2022/03/08 03:22:48;;;;;;;18.40;9.40;;;;;;;;;;5090806;28;20055;-69
2022/03/08 03:25:15;;;;;;;16.40;8.73;;;;;;;;;;5088259;28;20116;-69
2022/03/08 03:27:41;;;;;;;16.83;8.90;;;;;;;;;;5070152;28;20032;-69
2022/03/08 03:30:27;;;;;;;17.73;9.35;;;;;;;;;;5053296;28;20153;-69
2022/03/08 03:32:53;;;;;;;17.45;9.05;;;;;;;;;;5067653;28;20167;-69
2022/03/08 03:35:19;;;;;;;17.92;10.10;;;;;;;;;;5051697;28;20067;-69
2022/03/08 03:37:46;;;;;;;18.17;9.02;;;;;;;;;;5051846;28;20495;-69
2022/03/08 03:40:12;;;;;;;17.77;9.77;;;;;;;;;;5034736;28;20214;-69
2022/03/08 03:42:38;;;;;;;18.95;9.93;;;;;;;;;;5051749;28;20040;-69
2022/03/08 03:45:05;;;;;;;20.27;9.80;;;;;;;;;;5051871;28;20045;-69
2022/03/08 03:47:31;;;;;;;17.65;9.18;;;;;;;;;;5034607;28;20048;-69
2022/03/08 03:49:57;;;;;;;18.17;9.70;;;;;;;;;;5035030;28;20736;-69
2022/03/08 03:52:23;;;;;;;19.67;10.23;;;;;;;;;;5068281;28;20060;-69
2022/03/08 03:54:49;;;;;;;18.17;9.63;;;;;;;;;;5051044;28;20435;-70
2022/03/08 03:57:15;;;;;;;18.55;9.65;;;;;;;;;;5051623;28;20074;-69
2022/03/08 03:59:41;;;;;;;20.98;11.02;;;;;;;;;;5034745;28;20049;-69
2022/03/08 04:02:07;;;;;;;17.50;10.38;;;;;;;;;;5051131;28;20567;-69
2022/03/08 04:04:33;;;;;;;18.60;10.43;;;;;;;;;;5064859;28;20395;-69
2022/03/08 04:06:59;;;;;;;20.25;10.57;;;;;;;;;;5069524;28;20092;-69
2022/03/08 04:09:25;;;;;;;18.75;10.20;;;;;;;;;;5068939;28;20105;-69
2022/03/08 04:11:51;;;;;;;20.15;10.93;;;;;;;;;;5052828;28;20798;-69
2022/03/08 04:14:18;;;;;;;20.40;10.68;;;;;;;;;;5069573;28;20040;-69
2022/03/08 04:16:44;;;;;;;18.02;9.55;;;;;;;;;;5068747;28;20052;-69
2022/03/08 04:19:10;;;;;;;16.20;10.60;;;;;;;;;;5071079;28;20041;-69
2022/03/08 04:21:36;;;;;;;19.65;10.48;;;;;;;;;;5052826;28;20497;-69
2022/03/08 04:24:02;;;;;;;21.35;10.57;;;;;;;;;;5052149;28;20482;-69
2022/03/08 04:26:28;;;;;;;21.60;10.70;;;;;;;;;;5050896;28;20490;-69
2022/03/08 04:28:54;;;;;;;22.05;11.18;;;;;;;;;;5093020;28;20059;-69
2022/03/08 04:31:20;;;;;;;20.17;10.00;;;;;;;;;;5093062;28;20044;-69
2022/03/08 04:33:46;;;;;;;20.10;10.63;;;;;;;;;;5093358;28;20036;-69
2022/03/08 04:36:12;;;;;;;16.05;9.40;;;;;;;;;;5093168;28;20577;-69
2022/03/08 04:38:39;;;;;;;20.25;10.95;;;;;;;;;;5093082;28;20064;-69
2022/03/08 04:41:07;;;;;;;18.38;10.23;;;;;;;;;;5093036;28;20032;-69
2022/03/08 04:43:34;;;;;;;19.98;10.98;;;;;;;;;;5094277;28;20051;-69
2022/03/08 04:46:00;;;;;;;17.85;11.10;;;;;;;;;;5093124;28;20036;-69
2022/03/08 04:48:26;;;;;;;21.58;11.43;;;;;;;;;;5092644;28;20051;-69
2022/03/08 04:50:53;;;;;;;17.63;10.65;;;;;;;;;;5093306;28;20479;-69
2022/03/08 04:53:19;;;;;;;21.83;10.55;;;;;;;;;;5092934;28;20036;-69
2022/03/08 04:55:45;;;;;;;18.38;10.57;;;;;;;;;;5092180;28;20410;-69
2022/03/08 04:58:11;;;;;;;23.70;11.20;;;;;;;;;;5076209;28;20054;-69
2022/03/08 05:00:37;;;;;;;21.90;11.80;;;;;;;;;;5076088;28;20127;-69
2022/03/08 05:03:03;;;;;;;18.90;10.63;;;;;;;;;;5092160;28;20040;-69
2022/03/08 05:05:32;;;;;;;22.67;11.05;;;;;;;;;;5092595;28;20489;-69
2022/03/08 05:07:59;;;;;;;20.02;10.55;;;;;;;;;;5092726;28;20480;-69
2022/03/08 05:10:25;;;;;;;19.73;10.82;;;;;;;;;;5092085;28;20044;-69
2022/03/08 05:12:52;;;;;;;20.63;10.88;;;;;;;;;;5075738;28;20436;-69
2022/03/08 05:15:18;;;;;;;19.45;11.02;;;;;;;;;;5092723;28;20036;-69
2022/03/08 05:17:44;;;;;;;17.50;10.82;;;;;;;;;;5091775;28;20040;-69
2022/03/08 05:20:11;;;;;;;20.63;11.18;;;;;;;;;;5092942;28;20048;-69
2022/03/08 05:22:37;;;;;;;23.25;11.30;;;;;;;;;;5092446;28;20386;-69
2022/03/08 05:25:04;;;;;;;24.33;11.60;;;;;;;;;;5091731;28;20048;-69
2022/03/08 05:27:30;;;;;;;21.30;11.40;;;;;;;;;;5071805;28;20136;-69
2022/03/08 05:29:56;;;;;;;18.95;11.35;;;;;;;;;;5071865;28;20083;-70
2022/03/08 05:32:22;;;;;;;23.33;11.95;;;;;;;;;;5054649;28;20083;-69
2022/03/08 05:34:48;;;;;;;22.08;11.75;;;;;;;;;;5072038;28;20479;-69
2022/03/08 05:37:14;;;;;;;20.50;11.00;;;;;;;;;;5055114;28;20044;-69
2022/03/08 05:39:42;;;;;;;20.30;11.07;;;;;;;;;;5071262;28;20094;-69
2022/03/08 05:42:08;;;;;;;20.45;10.65;;;;;;;;;;5072034;28;20044;-69
2022/03/08 05:44:34;;;;;;;21.88;11.57;;;;;;;;;;5073383;28;20045;-69
2022/03/08 05:47:00;;;;;;;20.48;11.13;;;;;;;;;;5070971;28;20041;-69
2022/03/08 05:49:26;;;;;;;22.38;11.50;;;;;;;;;;5071773;28;20080;-69
2022/03/08 05:51:52;;;;;;;20.05;11.00;;;;;;;;;;5071898;28;20412;-69
2022/03/08 05:54:18;;;;;;;21.27;11.00;;;;;;;;;;5070645;28;20119;-69
2022/03/08 05:56:44;;;;;;;20.77;10.55;;;;;;;;;;5071593;28;20040;-69
2022/03/08 05:59:10;;;;;;;20.33;12.00;;;;;;;;;;5071419;28;20052;-69
2022/03/08 06:01:36;;;;;;;17.85;10.45;;;;;;;;;;5070845;28;20052;-69
2022/03/08 06:04:02;;;;;;;19.17;10.57;;;;;;;;;;5071285;28;20044;-69
2022/03/08 06:06:29;;;;;;;23.08;11.95;;;;;;;;;;5071200;28;20047;-69
2022/03/08 06:08:55;;;;;;;22.05;11.43;;;;;;;;;;5070762;28;20119;-69
2022/03/08 06:11:21;;;;;;;21.83;11.23;;;;;;;;;;5071597;28;20048;-69
2022/03/08 06:13:47;;;;;;;24.33;11.27;;;;;;;;;;5071419;28;20041;-69
2022/03/08 06:16:13;;;;;;;19.67;10.82;;;;;;;;;;5070464;28;20536;-69
2022/03/08 06:18:40;;;;;;;21.60;10.77;;;;;;;;;;5071004;28;20037;-69
2022/03/08 06:21:06;;;;;;;21.30;10.60;;;;;;;;;;5072948;28;20388;-69
2022/03/08 06:23:32;;;;;;;16.40;10.35;;;;;;;;;;5070446;28;20501;-69
2022/03/08 06:25:58;;;;;;;20.38;10.75;;;;;;;;;;5078056;28;20498;-69
2022/03/08 06:28:24;;;;;;;20.23;10.75;;;;;;;;;;5091158;28;20079;-69
2022/03/08 06:30:50;;;;;;;18.35;11.18;;;;;;;;;;5090073;28;20113;-69
2022/03/08 06:33:16;;;;;;;20.65;10.18;;;;;;;;;;5090943;28;20040;-69
2022/03/08 06:35:42;;;;;;;19.77;10.68;;;;;;;;;;5090654;28;20082;-69
2022/03/08 06:38:08;;;;;;;19.05;10.73;;;;;;;;;;5090262;28;20126;-69
2022/03/08 06:40:34;;;;;;;19.13;10.82;;;;;;;;;;5090987;28;20557;-69
2022/03/08 06:43:00;;;;;;;17.67;9.50;;;;;;;;;;5090921;28;20079;-69
2022/03/08 06:45:26;;;;;;;19.52;10.73;;;;;;;;;;5073191;28;20044;-69
2022/03/08 06:47:52;;;;;;;20.70;10.95;;;;;;;;;;5089894;28;20070;-69
2022/03/08 06:50:18;;;;;;;22.55;10.73;;;;;;;;;;5090265;28;20032;-69
2022/03/08 06:52:44;;;;;;;16.65;9.95;;;;;;;;;;5088768;28;20040;-69
2022/03/08 06:55:10;;;;;;;18.13;9.85;;;;;;;;;;5090649;28;20450;-69
2022/03/08 06:57:37;;;;;;;20.38;10.38;;;;;;;;;;5080418;28;20032;-69
2022/03/08 07:00:04;;;;;;;19.77;11.00;;;;;;;;;;5080433;28;20052;-69
2022/03/08 07:02:30;;;;;;;19.95;10.13;;;;;;;;;;5082043;28;20047;-70
2022/03/08 07:04:56;;;;;;;18.52;10.75;;;;;;;;;;5080185;28;20040;-69
2022/03/08 07:07:22;;;;;;;19.30;10.85;;;;;;;;;;5078567;28;20039;-69
2022/03/08 07:09:48;;;;;;;19.45;10.25;;;;;;;;;;5073530;28;20123;-69
2022/03/08 07:12:14;;;;;;;21.05;11.02;;;;;;;;;;5091352;28;20047;-69
2022/03/08 07:14:41;;;;;;;18.13;10.55;;;;;;;;;;5082393;28;20036;-70
2022/03/08 07:17:07;;;;;;;21.42;10.88;;;;;;;;;;5077285;28;20046;-69
2022/03/08 07:19:33;;;;;;;20.60;10.15;;;;;;;;;;5090398;28;20044;-69
2022/03/08 07:22:00;;;;;;;16.23;9.77;;;;;;;;;;5089423;28;20104;-69
2022/03/08 07:24:26;;;;;;;16.77;9.90;;;;;;;;;;5085751;28;20040;-69
2022/03/08 07:26:52;;;;;;;18.58;9.48;;;;;;;;;;5077141;28;20583;-70
2022/03/08 07:29:18;;;;;;;16.20;9.48;;;;;;;;;;5081336;28;20135;-70
2022/03/08 07:31:44;;;;;;;17.80;9.63;;;;;;;;;;5075586;28;20032;-69
2022/03/08 07:34:10;;;;;;;17.15;10.25;;;;;;;;;;5083585;28;21726;-70
2022/03/08 07:36:38;;;;;;;17.42;9.88;;;;;;;;;;5072053;28;20068;-69
2022/03/08 07:39:04;;;;;;;19.52;11.90;;;;;;;;;;5084284;28;20458;-70
2022/03/08 07:41:30;;;;;;;17.48;11.10;;;;;;;;;;5077355;28;20475;-68
2022/03/08 07:43:56;;;;;;;18.25;10.80;;;;;;;;;;5078744;28;20040;-70
2022/03/08 07:46:22;;;;;;;16.90;10.23;;;;;;;;;;5079210;28;20036;-71
2022/03/08 07:48:48;;;;;;;19.92;10.38;;;;;;;;;;5085791;28;20038;-69
2022/03/08 07:51:14;;;;;;;16.17;9.63;;;;;;;;;;5088697;28;20036;-69
2022/03/08 07:53:41;;;;;;;17.30;9.80;;;;;;;;;;5071634;28;20047;-69
2022/03/08 07:56:07;;;;;;;15.40;9.30;;;;;;;;;;5085376;28;20052;-67
2022/03/08 07:58:37;;;;;;;16.48;10.13;;;;;;;;;;5080205;28;20044;-69
2022/03/08 08:01:03;;;;;;;14.85;9.82;;;;;;;;;;5075582;28;20495;-68
2022/03/08 08:03:30;;;;;;;18.17;10.23;;;;;;;;;;5080104;28;20028;-69
2022/03/08 08:05:56;;;;;;;16.27;9.27;;;;;;;;;;5083325;28;20036;-69
2022/03/08 08:08:23;;;;;;;17.33;10.25;;;;;;;;;;5093988;28;20115;-68
2022/03/08 08:10:49;;;;;;;16.27;9.45;;;;;;;;;;5093557;28;20722;-67
2022/03/08 08:13:15;;;;;;;16.70;9.60;;;;;;;;;;5086013;28;20550;-67
2022/03/08 08:15:41;;;;;;;17.40;9.85;;;;;;;;;;5081301;28;20128;-66
2022/03/08 08:18:08;;;;;;;15.70;9.98;;;;;;;;;;5088046;28;20071;-68
2022/03/08 08:20:34;;;;;;;15.35;9.98;;;;;;;;;;5093605;28;20054;-67
2022/03/08 08:23:00;;;;;;;15.65;9.55;;;;;;;;;;5090807;28;20048;-69
2022/03/08 08:25:26;;;;;;;14.55;9.50;;;;;;;;;;5083112;28;20532;-69
2022/03/08 08:27:52;;;;;;;17.20;10.48;;;;;;;;;;5094256;28;20035;-69
2022/03/08 08:30:18;;;;;;;16.60;9.70;;;;;;;;;;5086937;28;20521;-70
2022/03/08 08:32:44;;;;;;;15.57;9.18;;;;;;;;;;5092593;28;20052;-66
2022/03/08 08:35:11;;;;;;;14.38;9.55;;;;;;;;;;5094092;28;20093;-68
2022/03/08 08:37:37;;;;;;;15.50;8.77;;;;;;;;;;5093174;28;20555;-67
2022/03/08 08:40:05;;;;;;;16.17;9.50;;;;;;;;;;5092886;28;20054;-69
2022/03/08 08:42:31;;;;;;;21.55;9.38;;;;;;;;;;5085118;28;20052;-69
2022/03/08 08:44:57;;;;;;;14.10;9.38;;;;;;;;;;5075582;28;20063;-68
2022/03/08 08:47:23;;;;;;;14.70;9.95;;;;;;;;;;5090071;28;20048;-68
2022/03/08 08:49:49;;;;;;;15.45;9.23;;;;;;;;;;5092495;28;20035;-68
2022/03/08 08:52:15;;;;;;;14.00;9.32;;;;;;;;;;5091985;28;20044;-70
2022/03/08 08:54:41;;;;;;;15.20;9.60;;;;;;;;;;5090839;28;20043;-69
2022/03/08 08:57:07;;;;;;;15.07;9.70;;;;;;;;;;5091628;28;20451;-68
2022/03/08 08:59:33;;;;;;;15.35;9.10;;;;;;;;;;5090824;28;20078;-69
2022/03/08 09:01:59;;;;;;;15.23;9.45;;;;;;;;;;5094570;28;20715;-68
2022/03/08 09:04:25;;;;;;;17.00;9.10;;;;;;;;;;5093840;28;20687;-70
2022/03/08 09:06:52;;;;;;;14.23;8.95;;;;;;;;;;5092496;28;20115;-69
2022/03/08 09:09:18;;;;;;;13.95;8.80;;;;;;;;;;5079803;28;20482;-69
2022/03/08 09:11:45;;;;;;;14.10;8.63;;;;;;;;;;5094086;28;20040;-69
2022/03/08 09:14:11;;;;;;;13.45;9.38;;;;;;;;;;5092355;28;20414;-69
2022/03/08 09:16:37;;;;;;;13.75;8.95;;;;;;;;;;5094886;28;20063;-69
2022/03/08 09:19:03;;;;;;;12.30;7.97;;;;;;;;;;5094709;28;20044;-68
2022/03/08 09:21:30;;;;;;;11.65;8.60;;;;;;;;;;5092506;28;20040;-69
2022/03/08 09:23:56;;;;;;;12.75;8.30;;;;;;;;;;5094161;28;20068;-69
2022/03/08 09:26:22;;;;;;;11.88;8.10;;;;;;;;;;5091233;28;20047;-69
2022/03/08 09:28:48;;;;;;;13.50;8.60;;;;;;;;;;5092234;28;20036;-67
2022/03/08 09:31:14;;;;;;;13.40;8.45;;;;;;;;;;5093379;28;20040;-66
2022/03/08 09:33:41;;;;;;;13.95;8.63;;;;;;;;;;5087402;28;20036;-67
2022/03/08 09:36:08;;;;;;;12.48;7.80;;;;;;;;;;5083056;28;20101;-66
2022/03/08 09:38:34;;;;;;;11.63;7.80;;;;;;;;;;5094261;28;20411;-66
2022/03/08 09:41:01;;;;;;;13.07;8.27;;;;;;;;;;5094348;28;20085;-68
2022/03/08 09:43:30;;;;;;;12.05;8.43;;;;;;;;;;5093518;28;20040;-67
2022/03/08 09:45:56;;;;;;;12.10;7.63;;;;;;;;;;5089887;28;20040;-67
2022/03/08 09:48:23;;;;;;;11.52;7.90;;;;;;;;;;5092525;28;20097;-65
2022/03/08 09:50:50;;;;;;;12.25;7.30;;;;;;;;;;5092808;28;20051;-66
2022/03/08 09:53:16;;;;;;;12.40;8.10;;;;;;;;;;5093226;28;20036;-67
2022/03/08 09:55:43;;;;;;;11.40;7.07;;;;;;;;;;5092910;28;20388;-67
2022/03/08 09:58:09;;;;;;;10.77;6.70;;;;;;;;;;5091489;28;20047;-68
2022/03/08 10:00:35;;;;;;;11.98;7.28;;;;;;;;;;5093469;28;20055;-70
2022/03/08 10:03:02;;;;;;;10.88;7.50;;;;;;;;;;5092358;28;20044;-69
2022/03/08 10:05:33;;;;;;;11.07;7.43;;;;;;;;;;5092574;28;20047;-69
2022/03/08 10:08:10;;;;;;;11.70;6.60;;;;;;;;;;5093111;28;20044;-68
2022/03/08 10:10:59;;;;;;;11.50;6.60;;;;;;;;;;5090399;28;20046;-70
2022/03/08 10:13:27;;;;;;;10.50;6.90;;;;;;;;;;5092029;28;20044;-68
2022/03/08 10:16:10;;;;;;;11.27;6.60;;;;;;;;;;5090992;28;20757;-68
2022/03/08 10:18:38;;;;;;;10.90;6.57;;;;;;;;;;5092028;28;20048;-68
2022/03/08 10:21:04;;;;;;;10.43;7.30;;;;;;;;;;5091245;28;20097;-68
2022/03/08 10:23:40;;;;;;;11.05;7.28;;;;;;;;;;5089938;28;20047;-68
2022/03/08 10:26:06;;;;;;;10.52;7.13;;;;;;;;;;5080861;28;20040;-69
2022/03/08 10:28:32;;;;;;;9.85;7.55;;;;;;;;;;5073876;28;20535;-67
2022/03/08 10:30:58;;;;;;;8.43;6.80;;;;;;;;;;5087054;28;20623;-67
2022/03/08 10:33:36;;;;;;;10.38;7.22;;;;;;;;;;5090612;28;20071;-66
2022/03/08 10:36:02;;;;;;;13.10;7.47;;;;;;;;;;5089259;28;20394;-67
2022/03/08 10:38:28;;;;;;;10.98;7.22;;;;;;;;;;5087922;28;20051;-67
2022/03/08 10:40:54;;;;;;;11.27;6.97;;;;;;;;;;5088854;28;20063;-67
2022/03/08 10:43:21;;;;;;;9.00;6.70;;;;;;;;;;5090836;28;20458;-68
2022/03/08 10:45:48;;;;;;;9.73;6.88;;;;;;;;;;5091021;28;20040;-69
2022/03/08 10:48:17;;;;;;;12.85;6.95;;;;;;;;;;5091662;28;20093;-67
2022/03/08 10:50:43;;;;;;;9.32;6.20;;;;;;;;;;5083669;28;20045;-68
2022/03/08 10:53:11;;;;;;;10.32;6.28;;;;;;;;;;5083343;28;20505;-67
2022/03/08 10:55:40;;;;;;;10.48;6.32;;;;;;;;;;5085808;28;20058;-69
2022/03/08 10:58:07;;;;;;;8.07;5.97;;;;;;;;;;5080687;28;20371;-69
2022/03/08 11:00:37;;;;;;;8.43;5.65;;;;;;;;;;5089712;28;20448;-67
2022/03/08 11:03:05;;;;;;;7.28;5.43;;;;;;;;;;5091646;28;20089;-68
2022/03/08 11:05:52;;;;;;;8.75;5.88;;;;;;;;;;5085219;28;20047;-69
2022/03/08 11:08:18;;;;;;;8.77;5.70;;;;;;;;;;5090581;28;20047;-67
2022/03/08 11:10:46;;;;;;;9.55;5.40;;;;;;;;;;5088758;28;20154;-67
2022/03/08 11:13:12;;;;;;;8.02;5.82;;;;;;;;;;5091675;28;20036;-68
2022/03/08 11:15:39;;;;;;;10.98;5.80;;;;;;;;;;5093667;28;20063;-69
2022/03/08 11:18:08;;;;;;;8.82;5.90;;;;;;;;;;5090027;28;20503;-68
2022/03/08 11:20:34;;;;;;;9.25;5.95;;;;;;;;;;5073186;28;20048;-68
2022/03/08 11:23:00;;;;;;;8.23;5.32;;;;;;;;;;5089266;28;20040;-68
2022/03/08 11:25:31;;;;;;;9.05;5.57;;;;;;;;;;5090880;28;20253;-69
2022/03/08 11:27:57;;;;;;;8.57;5.13;;;;;;;;;;5086018;28;20093;-68
2022/03/08 11:30:34;;;;;;;7.47;4.97;;;;;;;;;;5087334;28;20052;-68
2022/03/08 11:33:17;;;;;;;7.78;5.60;;;;;;;;;;5089831;28;20047;-69
2022/03/08 11:36:02;;;;;;;7.47;4.88;;;;;;;;;;5075528;28;20044;-67
2022/03/08 11:38:28;;;;;;;6.70;4.95;;;;;;;;;;5079807;28;20051;-64
2022/03/08 11:40:57;;;;;;;6.22;4.60;;;;;;;;;;5091186;28;20032;-64
2022/03/08 11:43:42;;;;;;;7.35;4.93;;;;;;;;;;5090440;28;20050;-67
2022/03/08 11:46:18;;;;;;;7.05;4.97;;;;;;;;;;5089094;28;20129;-67
2022/03/08 11:48:55;;;;;;;7.93;5.13;;;;;;;;;;5071869;28;20039;-67
2022/03/08 11:51:22;;;;;;;7.07;4.97;;;;;;;;;;5090394;28;20040;-67
2022/03/08 11:53:59;;;;;;;6.32;4.53;;;;;;;;;;5090682;28;20520;-67
2022/03/08 11:56:25;;;;;;;7.30;4.60;;;;;;;;;;5090706;28;20367;-67
2022/03/08 11:58:51;;;;;;;6.88;3.88;;;;;;;;;;5090897;28;20479;-67
2022/03/08 12:01:26;;;;;;;5.55;4.38;;;;;;;;;;5090813;28;20044;-67
2022/03/08 12:03:57;;;;;;;5.97;3.92;;;;;;;;;;5090417;28;20054;-67
2022/03/08 12:06:30;;;;;;;5.07;4.10;;;;;;;;;;5090850;28;20093;-67
2022/03/08 12:08:59;;;;;;;3.80;3.42;;;;;;;;;;5091300;28;20059;-67
2022/03/08 12:11:33;;;;;;;5.38;3.78;;;;;;;;;;5089888;28;20075;-66
2022/03/08 12:14:04;;;;;;;6.53;3.90;;;;;;;;;;5090497;28;20513;-68
2022/03/08 12:16:30;;;;;;;6.68;3.88;;;;;;;;;;5088937;28;20036;-66
2022/03/08 12:18:57;;;;;;;5.88;3.85;;;;;;;;;;5081647;28;20601;-67
2022/03/08 12:21:27;;;;;;;5.75;3.90;;;;;;;;;;5072525;28;20476;-69
2022/03/08 12:24:02;;;;;;;4.78;3.90;;;;;;;;;;5089060;28;20574;-66
2022/03/08 12:26:38;;;;;;;5.00;3.67;;;;;;;;;;5090531;28;20042;-67
2022/03/08 12:29:05;;;;;;;8.27;4.40;;;;;;;;;;5086963;28;20052;-67
2022/03/08 12:31:32;;;;;;;7.78;4.00;;;;;;;;;;5086287;28;20040;-66
2022/03/08 12:34:02;;;;;;;5.95;3.58;;;;;;;;;;5089989;28;20048;-67
2022/03/08 12:36:28;;;;;;;4.30;3.60;;;;;;;;;;5090610;28;20043;-68
2022/03/08 12:38:55;;;;;;;5.78;4.20;;;;;;;;;;5086041;28;20399;-68
2022/03/08 12:41:27;;;;;;;7.50;3.65;;;;;;;;;;5070338;28;20118;-69
2022/03/08 12:44:00;;;;;;;6.05;3.63;;;;;;;;;;5088818;28;20040;-68
2022/03/08 12:46:27;;;;;;;4.93;4.13;;;;;;;;;;5090230;28;20102;-66
2022/03/08 12:48:53;;;;;;;4.57;3.42;;;;;;;;;;5092864;28;20047;-64
2022/03/08 12:51:21;;;;;;;4.60;3.40;;;;;;;;;;5089615;28;20044;-65
2022/03/08 12:53:59;;;;;;;4.50;3.40;;;;;;;;;;5093808;28;20051;-65
2022/03/08 12:56:27;;;;;;;5.75;3.47;;;;;;;;;;5093592;28;20555;-67
2022/03/08 12:59:03;;;;;;;4.90;3.63;;;;;;;;;;5093321;28;20047;-66
2022/03/08 13:01:29;;;;;;;5.40;3.55;;;;;;;;;;5092969;28;20051;-69
2022/03/08 13:03:55;;;;;;;4.43;3.67;;;;;;;;;;5088904;28;20040;-68
2022/03/08 13:06:21;;;;;;;5.57;3.50;;;;;;;;;;5091039;28;20046;-69
2022/03/08 13:08:47;;;;;;;5.13;3.88;;;;;;;;;;5092992;28;20044;-70
2022/03/08 13:11:14;;;;;;;4.03;3.55;;;;;;;;;;5085992;28;20040;-70
2022/03/08 13:13:41;;;;;;;4.75;3.60;;;;;;;;;;5078519;28;20036;-66
2022/03/08 13:16:08;;;;;;;4.38;3.33;;;;;;;;;;5093325;28;20048;-66
2022/03/08 13:18:36;;;;;;;4.72;3.15;;;;;;;;;;5092069;28;20076;-67
2022/03/08 13:21:03;;;;;;;5.78;3.53;;;;;;;;;;5092156;28;20040;-67
2022/03/08 13:23:35;;;;;;;3.70;3.20;;;;;;;;;;5093289;28;20074;-70
2022/03/08 13:26:02;;;;;;;4.50;3.20;;;;;;;;;;5092267;28;20062;-68
2022/03/08 13:28:28;;;;;;;4.40;3.50;;;;;;;;;;5093182;28;20050;-67
2022/03/08 13:30:56;;;;;;;5.30;4.22;;;;;;;;;;5091544;28;20051;-67
2022/03/08 13:33:33;;;;;;;8.02;4.70;;;;;;;;;;5085639;28;20669;-68
2022/03/08 13:36:20;;;;;;;5.25;4.63;;;;;;;;;;5089763;28;20495;-69
2022/03/08 13:38:47;;;;;;;6.80;4.65;;;;;;;;;;5084082;28;20067;-70
2022/03/08 13:41:18;;;;;;;4.95;3.90;;;;;;;;;;5073194;28;20052;-69
2022/03/08 13:43:46;;;;;;;5.43;4.43;;;;;;;;;;5073459;28;20394;-68
2022/03/08 13:46:17;;;;;;;6.32;4.50;;;;;;;;;;5093760;28;20040;-70
2022/03/08 13:48:48;;;;;;;8.27;4.40;;;;;;;;;;5085414;28;20036;-70
2022/03/08 13:51:14;;;;;;;6.45;4.43;;;;;;;;;;5085615;28;20462;-70
2022/03/08 13:53:41;;;;;;;5.75;4.90;;;;;;;;;;5093076;28;20467;-70
2022/03/08 13:56:07;;;;;;;6.15;4.35;;;;;;;;;;5092861;28;20034;-67
2022/03/08 13:58:41;;;;;;;5.25;4.50;;;;;;;;;;5090515;28;20176;-68
2022/03/08 14:01:07;;;;;;;8.35;5.45;;;;;;;;;;5091924;28;20040;-68
2022/03/08 14:03:40;;;;;;;5.72;4.88;;;;;;;;;;5092259;28;20055;-68
2022/03/08 14:06:10;;;;;;;5.72;4.60;;;;;;;;;;5081637;28;20591;-67
2022/03/08 14:08:37;;;;;;;5.03;4.32;;;;;;;;;;5082320;28;20503;-68
2022/03/08 14:11:06;;;;;;;6.53;3.97;;;;;;;;;;5091921;28;20123;-69
2022/03/08 14:13:33;;;;;;;4.18;3.78;;;;;;;;;;5092302;28;20494;-69
2022/03/08 14:16:01;;;;;;;4.80;3.60;;;;;;;;;;5088864;28;20089;-68
2022/03/08 14:18:27;;;;;;;5.35;4.30;;;;;;;;;;5092091;28;20132;-68
2022/03/08 14:20:53;;;;;;;6.65;4.10;;;;;;;;;;5090570;28;20131;-68
2022/03/08 14:23:20;;;;;;;6.07;3.83;;;;;;;;;;5086041;28;20040;-68
2022/03/08 14:25:57;;;;;;;4.30;3.85;;;;;;;;;;5082415;28;20037;-69
2022/03/08 14:28:42;;;;;;;6.53;3.67;;;;;;;;;;5079478;28;20036;-68
2022/03/08 14:31:19;;;;;;;4.35;3.72;;;;;;;;;;5083130;28;20121;-70